LOT9E EDDH-EPKK
Flight info
| Callsign | LOT9E |
|---|---|
| Flight time | 1h 23m |
| Altitude | 33000 |
| Route | AMLUH2G/33 AMLUH L619 BUMIL DCT ERNUD M748 BOLBO L986 LASIS T714 MOFKE |
| Aircraft | E195/M-SDE3GILORVW/S |
Departure
| Time | 2026-04-21 18:22 |
|---|---|
| Airport | Hamburg Helmut Schmidt Airport (EDDH) |
Arrival
| Time | 2026-04-21 19:46 |
|---|---|
| Airport | Kraków John Paul II International Airport (EPKK) |
| Time | Latitude | Longitude | Altitude | Speed | Heading |
|---|---|---|---|---|---|
| 2026-04-21 17:58 | 53.62839 | 10.00206 | 49 ft | 0 kts | 63° |
| 2026-04-21 18:16 | 53.62833 | 10.00186 | 49 ft | 2 kts | 63° |
| 2026-04-21 18:16 | 53.62826 | 10.00162 | 47 ft | 2 kts | 63° |
| 2026-04-21 18:17 | 53.62819 | 10.00137 | 47 ft | 2 kts | 50° |
| 2026-04-21 18:17 | 53.62807 | 10.00120 | 46 ft | 2 kts | 17° |
| 2026-04-21 18:17 | 53.62793 | 10.00116 | 46 ft | 0 kts | 334° |
| 2026-04-21 18:19 | 53.62796 | 10.00114 | 48 ft | 1 kts | 334° |
| 2026-04-21 18:19 | 53.62808 | 10.00104 | 47 ft | 3 kts | 334° |
| 2026-04-21 18:19 | 53.62829 | 10.00088 | 47 ft | 4 kts | 334° |
| 2026-04-21 18:19 | 53.62853 | 10.00060 | 49 ft | 4 kts | 309° |
| 2026-04-21 18:20 | 53.62858 | 10.00009 | 49 ft | 4 kts | 269° |
| 2026-04-21 18:20 | 53.62848 | 9.99971 | 47 ft | 4 kts | 244° |
| 2026-04-21 18:20 | 53.62843 | 9.99954 | 49 ft | 0 kts | 244° |
| 2026-04-21 18:21 | 53.62841 | 9.99946 | 49 ft | 2 kts | 244° |
| 2026-04-21 18:21 | 53.62828 | 9.99903 | 49 ft | 7 kts | 244° |
| 2026-04-21 18:21 | 53.62815 | 9.99803 | 47 ft | 11 kts | 290° |
| 2026-04-21 18:22 | 53.62886 | 9.99727 | 48 ft | 18 kts | 333° |
| 2026-04-21 18:22 | 53.63233 | 9.99430 | 47 ft | 94 kts | 334° |
| 2026-04-21 18:22 | 53.64026 | 9.98733 | 76 ft | 159 kts | 336° |
| 2026-04-21 18:22 | 53.65018 | 9.97751 | 822 ft | 163 kts | 332° |
| 2026-04-21 18:23 | 53.65941 | 9.96688 | 1635 ft | 164 kts | 328° |
| 2026-04-21 18:23 | 53.66870 | 9.95494 | 2321 ft | 172 kts | 324° |
| 2026-04-21 18:23 | 53.67869 | 9.94120 | 3010 ft | 195 kts | 326° |
| 2026-04-21 18:23 | 53.69106 | 9.92810 | 3677 ft | 225 kts | 336° |
| 2026-04-21 18:24 | 53.70607 | 9.91659 | 4503 ft | 247 kts | 347° |
| 2026-04-21 18:24 | 53.72347 | 9.91645 | 5458 ft | 260 kts | 20° |
| 2026-04-21 18:24 | 53.73809 | 9.93374 | 6769 ft | 252 kts | 55° |
| 2026-04-21 18:24 | 53.74450 | 9.96205 | 7793 ft | 275 kts | 85° |
| 2026-04-21 18:25 | 53.74256 | 9.99368 | 8322 ft | 262 kts | 98° |
| 2026-04-21 18:25 | 53.73931 | 10.02398 | 8841 ft | 261 kts | 100° |
| 2026-04-21 18:25 | 53.73370 | 10.05349 | 9381 ft | 267 kts | 108° |
| 2026-04-21 18:25 | 53.72614 | 10.08238 | 9836 ft | 278 kts | 115° |
| 2026-04-21 18:26 | 53.71646 | 10.11196 | 10004 ft | 297 kts | 116° |
| 2026-04-21 18:26 | 53.70618 | 10.14304 | 10252 ft | 309 kts | 117° |
| 2026-04-21 18:26 | 53.69219 | 10.17090 | 10320 ft | 317 kts | 140° |
| 2026-04-21 18:26 | 53.67320 | 10.19020 | 10361 ft | 319 kts | 149° |
| 2026-04-21 18:27 | 53.65302 | 10.20613 | 10363 ft | 320 kts | 153° |
| 2026-04-21 18:27 | 53.63246 | 10.22015 | 10849 ft | 321 kts | 155° |
| 2026-04-21 18:27 | 53.61259 | 10.23700 | 11349 ft | 318 kts | 139° |
| 2026-04-21 18:27 | 53.59787 | 10.26438 | 11888 ft | 314 kts | 122° |
| 2026-04-21 18:28 | 53.58562 | 10.29487 | 12469 ft | 315 kts | 120° |
| 2026-04-21 18:28 | 53.57348 | 10.32563 | 13062 ft | 316 kts | 120° |
| 2026-04-21 18:28 | 53.56121 | 10.35650 | 13659 ft | 317 kts | 120° |
| 2026-04-21 18:28 | 53.54890 | 10.38731 | 14246 ft | 319 kts | 120° |
| 2026-04-21 18:29 | 53.53648 | 10.41824 | 14781 ft | 319 kts | 121° |
| 2026-04-21 18:29 | 53.52396 | 10.44930 | 15235 ft | 323 kts | 121° |
| 2026-04-21 18:29 | 53.51090 | 10.47977 | 15682 ft | 328 kts | 124° |
| 2026-04-21 18:29 | 53.49661 | 10.50990 | 16148 ft | 330 kts | 124° |
| 2026-04-21 18:30 | 53.48224 | 10.54025 | 16622 ft | 333 kts | 125° |
| 2026-04-21 18:30 | 53.46767 | 10.57069 | 17097 ft | 336 kts | 125° |
| 2026-04-21 18:30 | 53.45295 | 10.60144 | 17581 ft | 339 kts | 125° |
| 2026-04-21 18:30 | 53.43810 | 10.63236 | 18072 ft | 341 kts | 125° |
| 2026-04-21 18:31 | 53.42318 | 10.66340 | 18566 ft | 343 kts | 125° |
| 2026-04-21 18:31 | 53.40814 | 10.69466 | 19007 ft | 344 kts | 125° |
| 2026-04-21 18:31 | 53.39309 | 10.72589 | 19448 ft | 345 kts | 124° |
| 2026-04-21 18:31 | 53.37797 | 10.75725 | 19896 ft | 347 kts | 124° |
| 2026-04-21 18:32 | 53.36277 | 10.78874 | 20346 ft | 349 kts | 124° |
| 2026-04-21 18:32 | 53.34746 | 10.82038 | 20809 ft | 350 kts | 124° |
| 2026-04-21 18:32 | 53.33229 | 10.85171 | 21272 ft | 351 kts | 124° |
| 2026-04-21 18:32 | 53.31692 | 10.88344 | 21744 ft | 351 kts | 124° |
| 2026-04-21 18:33 | 53.30146 | 10.91527 | 22222 ft | 352 kts | 124° |
| 2026-04-21 18:33 | 53.28602 | 10.94704 | 22709 ft | 352 kts | 124° |
| 2026-04-21 18:33 | 53.27058 | 10.97879 | 23160 ft | 354 kts | 124° |
| 2026-04-21 18:33 | 53.25487 | 11.01109 | 23285 ft | 364 kts | 124° |
| 2026-04-21 18:34 | 53.23875 | 11.04406 | 23325 ft | 366 kts | 124° |
| 2026-04-21 18:34 | 53.22277 | 11.07674 | 23532 ft | 360 kts | 124° |
| 2026-04-21 18:34 | 53.20706 | 11.10935 | 23998 ft | 359 kts | 121° |
| 2026-04-21 18:34 | 53.19298 | 11.14350 | 24400 ft | 357 kts | 120° |
| 2026-04-21 18:35 | 53.18335 | 11.16577 | 24660 ft | 358 kts | 121° |
| 2026-04-21 18:35 | 53.16378 | 11.21097 | 25109 ft | 360 kts | 121° |
| 2026-04-21 18:35 | 53.14924 | 11.24433 | 25452 ft | 361 kts | 121° |
| 2026-04-21 18:35 | 53.13446 | 11.27829 | 25802 ft | 362 kts | 121° |
| 2026-04-21 18:36 | 53.11962 | 11.31228 | 26158 ft | 363 kts | 121° |
| 2026-04-21 18:36 | 53.10474 | 11.34636 | 26516 ft | 363 kts | 121° |
| 2026-04-21 18:36 | 53.08986 | 11.38036 | 26878 ft | 363 kts | 120° |
| 2026-04-21 18:36 | 53.07496 | 11.41440 | 27242 ft | 363 kts | 120° |
| 2026-04-21 18:37 | 53.06007 | 11.44833 | 27616 ft | 363 kts | 120° |
| 2026-04-21 18:37 | 53.04537 | 11.48182 | 27987 ft | 363 kts | 120° |
| 2026-04-21 18:37 | 53.03046 | 11.51574 | 28238 ft | 366 kts | 120° |
| 2026-04-21 18:38 | 52.99981 | 11.58533 | 28332 ft | 381 kts | 121° |
| 2026-04-21 18:38 | 52.98408 | 11.62090 | 28567 ft | 383 kts | 121° |
| 2026-04-21 18:38 | 52.96831 | 11.65655 | 28863 ft | 383 kts | 121° |
| 2026-04-21 18:38 | 52.95252 | 11.69222 | 29147 ft | 384 kts | 121° |
| 2026-04-21 18:39 | 52.93669 | 11.72796 | 29437 ft | 385 kts | 121° |
| 2026-04-21 18:39 | 52.92079 | 11.76375 | 29725 ft | 386 kts | 121° |
| 2026-04-21 18:39 | 52.90488 | 11.79956 | 30015 ft | 386 kts | 121° |
| 2026-04-21 18:39 | 52.88892 | 11.83536 | 30311 ft | 386 kts | 121° |
| 2026-04-21 18:40 | 52.87294 | 11.87122 | 30559 ft | 387 kts | 121° |
| 2026-04-21 18:40 | 52.85694 | 11.90706 | 30804 ft | 387 kts | 121° |
| 2026-04-21 18:40 | 52.84634 | 11.93078 | 30967 ft | 387 kts | 121° |
| 2026-04-21 18:40 | 52.82492 | 11.97863 | 31293 ft | 387 kts | 121° |
| 2026-04-21 18:41 | 52.80891 | 12.01434 | 31545 ft | 386 kts | 121° |
| 2026-04-21 18:41 | 52.79288 | 12.05003 | 31803 ft | 386 kts | 121° |
| 2026-04-21 18:41 | 52.77708 | 12.08517 | 32046 ft | 386 kts | 121° |
| 2026-04-21 18:41 | 52.76109 | 12.12068 | 32304 ft | 386 kts | 121° |
| 2026-04-21 18:42 | 52.74630 | 12.15727 | 32561 ft | 380 kts | 113° |
| 2026-04-21 18:42 | 52.73465 | 12.19628 | 32825 ft | 378 kts | 110° |
| 2026-04-21 18:42 | 52.72335 | 12.23547 | 33089 ft | 378 kts | 113° |
| 2026-04-21 18:42 | 52.71088 | 12.27382 | 33230 ft | 381 kts | 113° |
| 2026-04-21 18:43 | 52.69824 | 12.31258 | 33300 ft | 386 kts | 114° |
| 2026-04-21 18:43 | 52.67216 | 12.39142 | 33327 ft | 397 kts | 114° |
| 2026-04-21 18:44 | 52.64528 | 12.47245 | 33319 ft | 409 kts | 114° |
| 2026-04-21 18:44 | 52.61763 | 12.55559 | 33317 ft | 419 kts | 114° |
| 2026-04-21 18:45 | 52.58925 | 12.64065 | 33309 ft | 429 kts | 114° |
| 2026-04-21 18:45 | 52.56038 | 12.72689 | 33297 ft | 437 kts | 115° |
| 2026-04-21 18:46 | 52.53073 | 12.81519 | 33299 ft | 445 kts | 115° |
| 2026-04-21 18:46 | 52.50054 | 12.90475 | 33302 ft | 452 kts | 115° |
| 2026-04-21 18:47 | 52.47018 | 12.99448 | 33288 ft | 447 kts | 115° |
| 2026-04-21 18:47 | 52.43984 | 13.08385 | 33273 ft | 449 kts | 115° |
| 2026-04-21 18:48 | 52.41457 | 13.15803 | 33280 ft | 449 kts | 115° |
| 2026-04-21 18:48 | 52.38407 | 13.24725 | 33265 ft | 449 kts | 115° |
| 2026-04-21 18:49 | 52.35349 | 13.33642 | 33267 ft | 449 kts | 115° |
| 2026-04-21 18:49 | 52.32801 | 13.41046 | 33271 ft | 450 kts | 115° |
| 2026-04-21 18:50 | 52.29179 | 13.51437 | 33262 ft | 451 kts | 117° |
| 2026-04-21 18:50 | 52.25884 | 13.60168 | 33268 ft | 451 kts | 117° |
| 2026-04-21 18:51 | 52.22418 | 13.68754 | 33265 ft | 453 kts | 120° |
| 2026-04-21 18:51 | 52.18856 | 13.77178 | 33273 ft | 454 kts | 121° |
| 2026-04-21 18:52 | 52.15244 | 13.85647 | 33264 ft | 454 kts | 121° |
| 2026-04-21 18:52 | 52.11637 | 13.94095 | 33268 ft | 454 kts | 121° |
| 2026-04-21 18:53 | 52.07956 | 14.02381 | 33270 ft | 456 kts | 123° |
| 2026-04-21 18:53 | 52.04068 | 14.10612 | 33260 ft | 456 kts | 124° |
| 2026-04-21 18:54 | 52.00221 | 14.18722 | 33260 ft | 455 kts | 123° |
| 2026-04-21 18:54 | 51.96488 | 14.27011 | 33254 ft | 455 kts | 121° |
| 2026-04-21 18:55 | 51.93535 | 14.34063 | 33253 ft | 454 kts | 119° |
| 2026-04-21 18:55 | 51.89549 | 14.44122 | 33258 ft | 454 kts | 118° |
| 2026-04-21 18:56 | 51.86279 | 14.52858 | 33249 ft | 453 kts | 117° |
| 2026-04-21 18:56 | 51.83070 | 14.61584 | 33253 ft | 453 kts | 117° |
| 2026-04-21 18:57 | 51.79856 | 14.70345 | 33238 ft | 454 kts | 117° |
| 2026-04-21 18:57 | 51.76629 | 14.79126 | 33249 ft | 454 kts | 117° |
| 2026-04-21 18:58 | 51.73402 | 14.87907 | 33249 ft | 454 kts | 117° |
| 2026-04-21 18:58 | 51.70199 | 14.96613 | 33250 ft | 454 kts | 117° |
| 2026-04-21 18:59 | 51.66973 | 15.05372 | 33242 ft | 454 kts | 117° |
| 2026-04-21 18:59 | 51.63747 | 15.14126 | 33240 ft | 454 kts | 117° |
| 2026-04-21 19:00 | 51.60520 | 15.22872 | 33239 ft | 455 kts | 117° |
| 2026-04-21 19:00 | 51.57294 | 15.31619 | 33237 ft | 455 kts | 117° |
| 2026-04-21 19:01 | 51.54065 | 15.40369 | 33234 ft | 455 kts | 117° |
| 2026-04-21 19:01 | 51.50828 | 15.49138 | 32904 ft | 454 kts | 117° |
| 2026-04-21 19:01 | 51.49245 | 15.53421 | 32554 ft | 449 kts | 117° |
| 2026-04-21 19:02 | 51.47653 | 15.57714 | 32210 ft | 445 kts | 117° |
| 2026-04-21 19:02 | 51.46072 | 15.61968 | 31875 ft | 442 kts | 117° |
| 2026-04-21 19:02 | 51.44498 | 15.66196 | 31536 ft | 439 kts | 117° |
| 2026-04-21 19:02 | 51.42934 | 15.70392 | 31208 ft | 437 kts | 117° |
| 2026-04-21 19:03 | 51.41376 | 15.74558 | 30875 ft | 434 kts | 117° |
| 2026-04-21 19:03 | 51.39828 | 15.78690 | 30559 ft | 431 kts | 117° |
| 2026-04-21 19:03 | 51.38289 | 15.82788 | 30231 ft | 428 kts | 117° |
| 2026-04-21 19:03 | 51.36759 | 15.86852 | 29852 ft | 425 kts | 117° |
| 2026-04-21 19:04 | 51.35258 | 15.90841 | 29485 ft | 422 kts | 117° |
| 2026-04-21 19:04 | 51.33745 | 15.94860 | 29120 ft | 420 kts | 117° |
| 2026-04-21 19:04 | 51.32241 | 15.98852 | 28746 ft | 417 kts | 117° |
| 2026-04-21 19:04 | 51.30747 | 16.02817 | 28386 ft | 414 kts | 117° |
| 2026-04-21 19:05 | 51.29263 | 16.06748 | 28032 ft | 412 kts | 117° |
| 2026-04-21 19:05 | 51.27788 | 16.10650 | 27676 ft | 409 kts | 117° |
| 2026-04-21 19:05 | 51.26319 | 16.14531 | 27326 ft | 406 kts | 117° |
| 2026-04-21 19:05 | 51.24862 | 16.18379 | 26982 ft | 404 kts | 117° |
| 2026-04-21 19:06 | 51.23412 | 16.22209 | 26642 ft | 401 kts | 117° |
| 2026-04-21 19:06 | 51.21972 | 16.26009 | 26306 ft | 399 kts | 117° |
| 2026-04-21 19:06 | 51.20557 | 16.29742 | 25983 ft | 401 kts | 117° |
| 2026-04-21 19:06 | 51.19086 | 16.33641 | 25673 ft | 416 kts | 117° |
| 2026-04-21 19:07 | 51.17576 | 16.37666 | 25371 ft | 427 kts | 117° |
| 2026-04-21 19:07 | 51.16053 | 16.41728 | 25062 ft | 426 kts | 117° |
| 2026-04-21 19:07 | 51.14541 | 16.45757 | 24746 ft | 422 kts | 117° |
| 2026-04-21 19:07 | 51.13039 | 16.49757 | 24433 ft | 420 kts | 117° |
| 2026-04-21 19:08 | 51.11540 | 16.53742 | 24120 ft | 418 kts | 117° |
| 2026-04-21 19:08 | 51.10048 | 16.57702 | 23813 ft | 416 kts | 117° |
| 2026-04-21 19:08 | 51.08564 | 16.61643 | 23438 ft | 414 kts | 117° |
| 2026-04-21 19:08 | 51.07105 | 16.65518 | 23081 ft | 412 kts | 117° |
| 2026-04-21 19:09 | 51.05630 | 16.69433 | 22715 ft | 410 kts | 117° |
| 2026-04-21 19:09 | 51.04170 | 16.73310 | 22358 ft | 408 kts | 117° |
| 2026-04-21 19:09 | 51.02716 | 16.77176 | 22003 ft | 406 kts | 117° |
| 2026-04-21 19:09 | 51.01270 | 16.81019 | 21656 ft | 404 kts | 117° |
| 2026-04-21 19:10 | 50.99829 | 16.84847 | 21364 ft | 402 kts | 117° |
| 2026-04-21 19:10 | 50.98399 | 16.88650 | 21266 ft | 402 kts | 117° |
| 2026-04-21 19:10 | 50.96962 | 16.92470 | 21228 ft | 402 kts | 117° |
| 2026-04-21 19:10 | 50.95541 | 16.96248 | 21217 ft | 402 kts | 117° |
| 2026-04-21 19:11 | 50.94107 | 17.00059 | 21211 ft | 402 kts | 117° |
| 2026-04-21 19:11 | 50.92675 | 17.03864 | 21212 ft | 402 kts | 117° |
| 2026-04-21 19:11 | 50.91238 | 17.07682 | 21209 ft | 402 kts | 117° |
| 2026-04-21 19:11 | 50.89801 | 17.11499 | 21213 ft | 403 kts | 117° |
| 2026-04-21 19:12 | 50.88849 | 17.14028 | 21204 ft | 402 kts | 117° |
| 2026-04-21 19:12 | 50.86930 | 17.19120 | 21209 ft | 403 kts | 117° |
| 2026-04-21 19:12 | 50.85490 | 17.22942 | 21207 ft | 403 kts | 117° |
| 2026-04-21 19:12 | 50.84073 | 17.26697 | 21207 ft | 403 kts | 117° |
| 2026-04-21 19:13 | 50.82635 | 17.30501 | 21204 ft | 403 kts | 117° |
| 2026-04-21 19:13 | 50.81191 | 17.34322 | 21205 ft | 403 kts | 117° |
| 2026-04-21 19:13 | 50.79754 | 17.38122 | 21200 ft | 403 kts | 117° |
| 2026-04-21 19:13 | 50.78316 | 17.41924 | 21202 ft | 403 kts | 117° |
| 2026-04-21 19:14 | 50.76871 | 17.45742 | 21201 ft | 403 kts | 117° |
| 2026-04-21 19:14 | 50.75445 | 17.49513 | 21198 ft | 403 kts | 117° |
| 2026-04-21 19:14 | 50.74005 | 17.53318 | 21200 ft | 404 kts | 117° |
| 2026-04-21 19:14 | 50.72562 | 17.57132 | 21196 ft | 404 kts | 117° |
| 2026-04-21 19:15 | 50.71157 | 17.60964 | 21197 ft | 403 kts | 115° |
| 2026-04-21 19:15 | 50.69871 | 17.64884 | 21197 ft | 402 kts | 114° |
| 2026-04-21 19:15 | 50.68630 | 17.68840 | 21198 ft | 402 kts | 113° |
| 2026-04-21 19:15 | 50.67408 | 17.72806 | 21197 ft | 402 kts | 113° |
| 2026-04-21 19:16 | 50.66190 | 17.76788 | 21202 ft | 403 kts | 112° |
| 2026-04-21 19:16 | 50.64977 | 17.80766 | 21108 ft | 404 kts | 112° |
| 2026-04-21 19:16 | 50.63773 | 17.84718 | 20785 ft | 393 kts | 112° |
| 2026-04-21 19:16 | 50.62614 | 17.88523 | 20456 ft | 376 kts | 112° |
| 2026-04-21 19:17 | 50.60622 | 17.95887 | 19540 ft | 356 kts | 108° |
| 2026-04-21 19:17 | 50.59869 | 17.99543 | 19073 ft | 346 kts | 102° |
| 2026-04-21 19:17 | 50.59340 | 18.03192 | 18630 ft | 338 kts | 98° |
| 2026-04-21 19:18 | 50.58925 | 18.06772 | 18152 ft | 335 kts | 97° |
| 2026-04-21 19:18 | 50.58552 | 18.10397 | 17653 ft | 336 kts | 96° |
| 2026-04-21 19:18 | 50.58337 | 18.14050 | 17166 ft | 334 kts | 91° |
| 2026-04-21 19:18 | 50.58208 | 18.17706 | 16689 ft | 333 kts | 91° |
| 2026-04-21 19:19 | 50.58093 | 18.21346 | 16216 ft | 331 kts | 90° |
| 2026-04-21 19:19 | 50.57986 | 18.24904 | 15755 ft | 329 kts | 91° |
| 2026-04-21 19:19 | 50.57878 | 18.28489 | 15299 ft | 327 kts | 90° |
| 2026-04-21 19:19 | 50.57768 | 18.32061 | 14845 ft | 326 kts | 91° |
| 2026-04-21 19:20 | 50.57659 | 18.35619 | 14396 ft | 325 kts | 91° |
| 2026-04-21 19:20 | 50.57288 | 18.39112 | 13950 ft | 326 kts | 105° |
| 2026-04-21 19:20 | 50.56489 | 18.42467 | 13460 ft | 326 kts | 109° |
| 2026-04-21 19:20 | 50.55625 | 18.45755 | 12981 ft | 324 kts | 110° |
| 2026-04-21 19:21 | 50.54782 | 18.49047 | 12496 ft | 322 kts | 107° |
| 2026-04-21 19:21 | 50.54075 | 18.52373 | 12024 ft | 320 kts | 106° |
| 2026-04-21 19:21 | 50.53370 | 18.55678 | 11561 ft | 318 kts | 106° |
| 2026-04-21 19:21 | 50.52641 | 18.58951 | 11083 ft | 318 kts | 112° |
| 2026-04-21 19:22 | 50.51572 | 18.61969 | 10800 ft | 314 kts | 115° |
| 2026-04-21 19:22 | 50.50614 | 18.65061 | 10983 ft | 318 kts | 111° |
| 2026-04-21 19:22 | 50.49659 | 18.68174 | 10746 ft | 322 kts | 116° |
| 2026-04-21 19:22 | 50.48675 | 18.71321 | 10195 ft | 320 kts | 112° |
| 2026-04-21 19:23 | 50.47767 | 18.74500 | 9590 ft | 318 kts | 111° |
| 2026-04-21 19:23 | 50.46883 | 18.77684 | 8967 ft | 317 kts | 111° |
| 2026-04-21 19:23 | 50.46012 | 18.80846 | 8357 ft | 315 kts | 111° |
| 2026-04-21 19:23 | 50.45145 | 18.84004 | 7759 ft | 314 kts | 111° |
| 2026-04-21 19:24 | 50.44278 | 18.87151 | 7181 ft | 313 kts | 111° |
| 2026-04-21 19:24 | 50.43416 | 18.90278 | 6588 ft | 312 kts | 111° |
| 2026-04-21 19:24 | 50.42553 | 18.93395 | 5991 ft | 311 kts | 111° |
| 2026-04-21 19:24 | 50.41693 | 18.96503 | 5392 ft | 310 kts | 111° |
| 2026-04-21 19:25 | 50.40854 | 18.99560 | 5127 ft | 298 kts | 110° |
| 2026-04-21 19:25 | 50.40190 | 19.02535 | 5031 ft | 280 kts | 102° |
| 2026-04-21 19:25 | 50.39753 | 19.05436 | 5001 ft | 267 kts | 99° |
| 2026-04-21 19:25 | 50.39376 | 19.08246 | 4979 ft | 261 kts | 98° |
| 2026-04-21 19:26 | 50.39009 | 19.11032 | 4996 ft | 262 kts | 100° |
| 2026-04-21 19:26 | 50.38532 | 19.13796 | 5005 ft | 264 kts | 103° |
| 2026-04-21 19:26 | 50.38026 | 19.16519 | 5006 ft | 264 kts | 103° |
| 2026-04-21 19:26 | 50.37501 | 19.19285 | 4998 ft | 264 kts | 104° |
| 2026-04-21 19:27 | 50.36976 | 19.22046 | 4995 ft | 263 kts | 104° |
| 2026-04-21 19:27 | 50.36453 | 19.24795 | 4998 ft | 264 kts | 103° |
| 2026-04-21 19:27 | 50.35929 | 19.27549 | 5012 ft | 264 kts | 103° |
| 2026-04-21 19:27 | 50.35403 | 19.30304 | 4997 ft | 264 kts | 103° |
| 2026-04-21 19:28 | 50.34879 | 19.33049 | 4990 ft | 263 kts | 103° |
| 2026-04-21 19:28 | 50.34356 | 19.35800 | 5003 ft | 264 kts | 103° |
| 2026-04-21 19:28 | 50.33828 | 19.38551 | 4998 ft | 264 kts | 104° |
| 2026-04-21 19:28 | 50.33301 | 19.41311 | 4992 ft | 264 kts | 104° |
| 2026-04-21 19:29 | 50.32771 | 19.44072 | 5004 ft | 264 kts | 104° |
| 2026-04-21 19:29 | 50.32243 | 19.46821 | 5003 ft | 264 kts | 104° |
| 2026-04-21 19:29 | 50.31721 | 19.49537 | 4998 ft | 264 kts | 104° |
| 2026-04-21 19:29 | 50.31191 | 19.52283 | 4997 ft | 264 kts | 104° |
| 2026-04-21 19:30 | 50.30665 | 19.55033 | 4993 ft | 264 kts | 102° |
| 2026-04-21 19:30 | 50.30263 | 19.57825 | 5002 ft | 263 kts | 98° |
| 2026-04-21 19:30 | 50.30029 | 19.60648 | 4995 ft | 260 kts | 85° |
| 2026-04-21 19:30 | 50.30244 | 19.63445 | 5003 ft | 258 kts | 78° |
| 2026-04-21 19:31 | 50.30554 | 19.66210 | 4996 ft | 258 kts | 77° |
| 2026-04-21 19:31 | 50.30894 | 19.68964 | 5003 ft | 258 kts | 76° |
| 2026-04-21 19:31 | 50.31246 | 19.71720 | 4992 ft | 257 kts | 76° |
| 2026-04-21 19:31 | 50.31601 | 19.74466 | 4994 ft | 257 kts | 76° |
| 2026-04-21 19:32 | 50.31898 | 19.77240 | 5002 ft | 260 kts | 85° |
| 2026-04-21 19:32 | 50.31773 | 19.80038 | 4990 ft | 262 kts | 94° |
| 2026-04-21 19:32 | 50.31531 | 19.82860 | 4998 ft | 262 kts | 95° |
| 2026-04-21 19:32 | 50.31257 | 19.85681 | 4997 ft | 262 kts | 96° |
| 2026-04-21 19:33 | 50.31066 | 19.87589 | 4996 ft | 263 kts | 96° |
| 2026-04-21 19:33 | 50.30680 | 19.91337 | 4993 ft | 263 kts | 96° |
| 2026-04-21 19:33 | 50.30386 | 19.94155 | 5001 ft | 263 kts | 96° |
| 2026-04-21 19:33 | 50.30089 | 19.96985 | 4990 ft | 264 kts | 96° |
| 2026-04-21 19:34 | 50.29892 | 19.98862 | 4984 ft | 263 kts | 96° |
| 2026-04-21 19:34 | 50.29598 | 20.01698 | 4935 ft | 265 kts | 96° |
| 2026-04-21 19:34 | 50.29304 | 20.04540 | 4731 ft | 264 kts | 96° |
| 2026-04-21 19:34 | 50.29008 | 20.07365 | 4517 ft | 262 kts | 96° |
| 2026-04-21 19:35 | 50.28718 | 20.10133 | 4313 ft | 261 kts | 96° |
| 2026-04-21 19:35 | 50.28129 | 20.15727 | 4041 ft | 260 kts | 96° |
| 2026-04-21 19:35 | 50.27838 | 20.18490 | 4000 ft | 251 kts | 96° |
| 2026-04-21 19:36 | 50.27558 | 20.21115 | 3977 ft | 239 kts | 96° |
| 2026-04-21 19:36 | 50.27284 | 20.23644 | 3968 ft | 230 kts | 96° |
| 2026-04-21 19:36 | 50.26986 | 20.26084 | 3963 ft | 229 kts | 105° |
| 2026-04-21 19:36 | 50.26074 | 20.28147 | 3960 ft | 238 kts | 140° |
| 2026-04-21 19:37 | 50.24558 | 20.29104 | 3994 ft | 243 kts | 170° |
| 2026-04-21 19:37 | 50.22870 | 20.29390 | 4005 ft | 244 kts | 174° |
| 2026-04-21 19:37 | 50.21179 | 20.29566 | 4003 ft | 243 kts | 176° |
| 2026-04-21 19:37 | 50.19520 | 20.29201 | 3986 ft | 243 kts | 201° |
| 2026-04-21 19:38 | 50.17950 | 20.28191 | 3986 ft | 244 kts | 205° |
| 2026-04-21 19:38 | 50.16401 | 20.27117 | 3990 ft | 243 kts | 204° |
| 2026-04-21 19:38 | 50.14912 | 20.25877 | 3967 ft | 242 kts | 221° |
| 2026-04-21 19:38 | 50.13939 | 20.23802 | 3978 ft | 236 kts | 253° |
| 2026-04-21 19:39 | 50.13611 | 20.21313 | 4008 ft | 235 kts | 265° |
| 2026-04-21 19:39 | 50.13310 | 20.18799 | 4005 ft | 236 kts | 259° |
| 2026-04-21 19:39 | 50.12929 | 20.16349 | 3983 ft | 227 kts | 261° |
| 2026-04-21 19:39 | 50.12640 | 20.14019 | 3969 ft | 214 kts | 262° |
| 2026-04-21 19:40 | 50.12340 | 20.11834 | 4001 ft | 196 kts | 261° |
| 2026-04-21 19:40 | 50.12069 | 20.09864 | 4008 ft | 177 kts | 262° |
| 2026-04-21 19:40 | 50.11825 | 20.08025 | 4002 ft | 170 kts | 262° |
| 2026-04-21 19:40 | 50.11580 | 20.06238 | 3995 ft | 172 kts | 262° |
| 2026-04-21 19:41 | 50.11331 | 20.04401 | 3882 ft | 176 kts | 262° |
| 2026-04-21 19:41 | 50.11078 | 20.02546 | 3655 ft | 174 kts | 262° |
| 2026-04-21 19:41 | 50.10830 | 20.00726 | 3445 ft | 170 kts | 262° |
| 2026-04-21 19:41 | 50.10596 | 19.99023 | 3313 ft | 151 kts | 262° |
| 2026-04-21 19:42 | 50.10383 | 19.97456 | 3109 ft | 146 kts | 263° |
| 2026-04-21 19:42 | 50.10170 | 19.95899 | 2916 ft | 145 kts | 263° |
| 2026-04-21 19:42 | 50.09966 | 19.94404 | 2711 ft | 139 kts | 263° |
| 2026-04-21 19:42 | 50.09768 | 19.92954 | 2513 ft | 136 kts | 263° |
| 2026-04-21 19:43 | 50.09570 | 19.91517 | 2342 ft | 135 kts | 262° |
| 2026-04-21 19:43 | 50.09372 | 19.90083 | 2174 ft | 135 kts | 262° |
| 2026-04-21 19:43 | 50.09177 | 19.88653 | 1990 ft | 134 kts | 262° |
| 2026-04-21 19:43 | 50.08983 | 19.87243 | 1788 ft | 132 kts | 261° |
| 2026-04-21 19:44 | 50.08791 | 19.85852 | 1606 ft | 131 kts | 260° |
| 2026-04-21 19:44 | 50.08601 | 19.84481 | 1418 ft | 128 kts | 260° |
| 2026-04-21 19:44 | 50.08416 | 19.83135 | 1243 ft | 128 kts | 259° |
| 2026-04-21 19:44 | 50.08228 | 19.81797 | 1086 ft | 125 kts | 259° |
| 2026-04-21 19:45 | 50.08041 | 19.80459 | 929 ft | 127 kts | 260° |
| 2026-04-21 19:45 | 50.07857 | 19.79175 | 792 ft | 114 kts | 262° |
| 2026-04-21 19:45 | 50.07728 | 19.78136 | 788 ft | 78 kts | 257° |
| 2026-04-21 19:45 | 50.07634 | 19.77470 | 790 ft | 55 kts | 255° |
| 2026-04-21 19:46 | 50.07568 | 19.76985 | 795 ft | 33 kts | 257° |
| 2026-04-21 19:46 | 50.07466 | 19.76854 | 793 ft | 21 kts | 168° |
| 2026-04-21 19:46 | 50.07335 | 19.76903 | 789 ft | 15 kts | 162° |
| 2026-04-21 19:46 | 50.07319 | 19.77041 | 789 ft | 15 kts | 76° |
| 2026-04-21 19:47 | 50.07342 | 19.77201 | 789 ft | 15 kts | 78° |
| 2026-04-21 19:47 | 50.07365 | 19.77370 | 789 ft | 16 kts | 78° |
| 2026-04-21 19:47 | 50.07389 | 19.77553 | 789 ft | 18 kts | 78° |
| 2026-04-21 19:47 | 50.07418 | 19.77755 | 789 ft | 20 kts | 77° |
| 2026-04-21 19:48 | 50.07449 | 19.77976 | 789 ft | 22 kts | 78° |
| 2026-04-21 19:48 | 50.07482 | 19.78215 | 789 ft | 23 kts | 77° |
| 2026-04-21 19:48 | 50.07517 | 19.78468 | 789 ft | 24 kts | 78° |
| 2026-04-21 19:48 | 50.07553 | 19.78728 | 789 ft | 25 kts | 78° |
| 2026-04-21 19:49 | 50.07590 | 19.78993 | 789 ft | 26 kts | 78° |
| 2026-04-21 19:49 | 50.07629 | 19.79267 | 789 ft | 26 kts | 77° |
| 2026-04-21 19:49 | 50.07668 | 19.79549 | 789 ft | 27 kts | 77° |
| 2026-04-21 19:49 | 50.07702 | 19.79792 | 789 ft | 14 kts | 77° |
| 2026-04-21 19:50 | 50.07690 | 19.79867 | 789 ft | 11 kts | 138° |
| 2026-04-21 19:50 | 50.07592 | 19.79907 | 789 ft | 12 kts | 167° |
| 2026-04-21 19:50 | 50.07510 | 19.79936 | 789 ft | 12 kts | 168° |
| 2026-04-21 19:50 | 50.07422 | 19.79963 | 789 ft | 13 kts | 166° |
| 2026-04-21 19:51 | 50.07401 | 19.80073 | 789 ft | 10 kts | 112° |
| 2026-04-21 19:51 | 50.07340 | 19.80104 | 789 ft | 6 kts | 167° |
| 2026-04-21 19:51 | 50.07333 | 19.80106 | 789 ft | 1 kts | 167° |
| 2026-04-21 19:51 | 50.07327 | 19.80108 | 789 ft | 0 kts | 167° |